Time;durP1;ratioP1;P1;durP2;ratioP2;P2;SDS_P1;SDS_P2;PMS_P1;PMS_P2;Temp;Humidity;BMP_temperature;BMP_pressure;BME280_temperature;BME280_humidity;BME280_pressure;Samples;Min_cycle;Max_cycle;Signal;HPM_P1;HPM_P2
2023/12/15 00:00:42;;;;;;;30.40;15.80;;;;;;;;;;5036845;28;20025;-84
2023/12/15 00:03:14;;;;;;;36.93;18.83;;;;;;;;;;5032692;28;20458;-83
2023/12/15 00:05:40;;;;;;;35.08;16.58;;;;;;;;;;5030584;28;20047;-82
2023/12/15 00:08:06;;;;;;;41.00;18.93;;;;;;;;;;5025284;28;20048;-83
2023/12/15 00:10:32;;;;;;;34.70;17.37;;;;;;;;;;5033160;28;20130;-83
2023/12/15 00:12:58;;;;;;;33.13;15.70;;;;;;;;;;5023886;28;20109;-81
2023/12/15 00:15:27;;;;;;;30.67;16.50;;;;;;;;;;5029907;28;20089;-83
2023/12/15 00:17:56;;;;;;;31.97;16.53;;;;;;;;;;5030323;28;20050;-82
2023/12/15 00:20:28;;;;;;;32.77;17.03;;;;;;;;;;5029217;28;20022;-80
2023/12/15 00:23:00;;;;;;;38.00;18.02;;;;;;;;;;5028206;28;20033;-79
2023/12/15 00:25:28;;;;;;;35.90;17.33;;;;;;;;;;5028594;28;20123;-81
2023/12/15 00:28:03;;;;;;;31.27;16.43;;;;;;;;;;5045120;28;20034;-80
2023/12/15 00:30:29;;;;;;;30.07;15.63;;;;;;;;;;5027605;28;20029;-80
2023/12/15 00:32:58;;;;;;;30.73;16.20;;;;;;;;;;5028734;28;20032;-81
2023/12/15 00:35:25;;;;;;;33.07;16.37;;;;;;;;;;5029295;28;20052;-82
2023/12/15 00:37:56;;;;;;;30.10;16.07;;;;;;;;;;5046352;28;20049;-82
2023/12/15 00:40:23;;;;;;;35.72;19.02;;;;;;;;;;5048899;28;20098;-82
2023/12/15 00:42:49;;;;;;;36.87;16.77;;;;;;;;;;5031382;28;20041;-82
2023/12/15 00:45:15;;;;;;;33.60;17.47;;;;;;;;;;5030072;28;20022;-82
2023/12/15 00:47:41;;;;;;;30.67;15.87;;;;;;;;;;5030372;28;20032;-82
2023/12/15 00:50:08;;;;;;;35.17;16.43;;;;;;;;;;5033269;28;20029;-81
2023/12/15 00:52:36;;;;;;;36.07;16.97;;;;;;;;;;5032391;28;20060;-81
2023/12/15 00:55:02;;;;;;;31.03;15.73;;;;;;;;;;5048769;28;20026;-81
2023/12/15 00:57:28;;;;;;;34.63;17.17;;;;;;;;;;5032560;28;20040;-82
2023/12/15 00:59:58;;;;;;;30.67;16.07;;;;;;;;;;5049513;28;20072;-81
2023/12/15 01:02:26;;;;;;;30.27;16.50;;;;;;;;;;5031969;28;20041;-82
2023/12/15 01:04:52;;;;;;;35.77;16.93;;;;;;;;;;5032868;28;20032;-82
2023/12/15 01:07:21;;;;;;;33.67;16.03;;;;;;;;;;5053320;28;20096;-82
2023/12/15 01:09:47;;;;;;;32.27;15.83;;;;;;;;;;5030913;28;20060;-79
2023/12/15 01:12:13;;;;;;;39.67;18.47;;;;;;;;;;5053319;28;20037;-84
2023/12/15 01:14:41;;;;;;;31.13;17.20;;;;;;;;;;5050080;28;20017;-81
2023/12/15 01:17:09;;;;;;;31.07;16.07;;;;;;;;;;5032466;28;20088;-83
2023/12/15 01:19:41;;;;;;;36.70;17.63;;;;;;;;;;5030560;28;20025;-81
2023/12/15 01:22:07;;;;;;;29.73;15.83;;;;;;;;;;5047439;28;20049;-83
2023/12/15 01:24:36;;;;;;;33.67;17.20;;;;;;;;;;5048926;28;20306;-82
2023/12/15 01:27:02;;;;;;;31.27;16.83;;;;;;;;;;5049065;28;20044;-80
2023/12/15 01:29:48;;;;;;;34.77;16.83;;;;;;;;;;5032347;28;20199;-82
2023/12/15 01:32:14;;;;;;;34.70;16.60;;;;;;;;;;5032092;28;20029;-82
2023/12/15 01:34:40;;;;;;;31.70;17.33;;;;;;;;;;5031759;28;20359;-82
2023/12/15 01:37:07;;;;;;;38.67;17.03;;;;;;;;;;5030699;28;20049;-80
2023/12/15 01:39:36;;;;;;;34.77;18.03;;;;;;;;;;5031484;28;20029;-80
2023/12/15 01:42:04;;;;;;;33.70;17.23;;;;;;;;;;5030696;28;20124;-82
2023/12/15 01:44:30;;;;;;;30.53;16.43;;;;;;;;;;5031661;28;20523;-81
2023/12/15 01:46:56;;;;;;;32.50;16.47;;;;;;;;;;5032665;28;20379;-82
2023/12/15 01:49:22;;;;;;;30.27;15.20;;;;;;;;;;5052118;28;20029;-79
2023/12/15 01:51:48;;;;;;;31.80;17.93;;;;;;;;;;5030989;28;20464;-80
2023/12/15 01:54:17;;;;;;;35.07;16.60;;;;;;;;;;5048487;28;20182;-81
2023/12/15 01:56:48;;;;;;;35.87;17.00;;;;;;;;;;5031296;28;20032;-82
2023/12/15 01:59:18;;;;;;;34.43;16.03;;;;;;;;;;5053545;28;20025;-82
2023/12/15 02:01:44;;;;;;;32.93;18.23;;;;;;;;;;5030313;28;20038;-81
2023/12/15 02:04:13;;;;;;;33.37;16.77;;;;;;;;;;5029945;28;20115;-80
2023/12/15 02:06:39;;;;;;;31.63;16.00;;;;;;;;;;5052408;28;20028;-83
2023/12/15 02:09:05;;;;;;;36.50;18.00;;;;;;;;;;5049120;28;20039;-80
2023/12/15 02:11:31;;;;;;;30.60;17.83;;;;;;;;;;5032094;28;20056;-81
2023/12/15 02:13:57;;;;;;;33.83;17.10;;;;;;;;;;5030385;28;20101;-82
2023/12/15 02:16:23;;;;;;;39.83;18.80;;;;;;;;;;5030926;28;20018;-80
2023/12/15 02:18:59;;;;;;;35.47;16.67;;;;;;;;;;5030126;28;20706;-80
2023/12/15 02:21:32;;;;;;;35.40;18.13;;;;;;;;;;5052164;28;20038;-83
2023/12/15 02:23:58;;;;;;;35.80;18.10;;;;;;;;;;5030425;28;20029;-81
2023/12/15 02:26:24;;;;;;;33.67;17.43;;;;;;;;;;5031872;28;20047;-80
2023/12/15 02:28:50;;;;;;;34.10;16.93;;;;;;;;;;5029852;28;20040;-82
2023/12/15 02:31:25;;;;;;;35.03;18.17;;;;;;;;;;5031023;28;20041;-82
2023/12/15 02:33:53;;;;;;;34.53;18.07;;;;;;;;;;5050791;28;20053;-80
2023/12/15 02:36:22;;;;;;;32.43;19.07;;;;;;;;;;5047841;28;20027;-81
2023/12/15 02:38:48;;;;;;;33.50;17.90;;;;;;;;;;5031821;28;20029;-81
2023/12/15 02:41:14;;;;;;;40.13;19.27;;;;;;;;;;5030757;28;20033;-81
2023/12/15 02:43:41;;;;;;;36.47;18.87;;;;;;;;;;5046481;28;20025;-80
2023/12/15 02:46:09;;;;;;;34.43;18.53;;;;;;;;;;5029814;28;20026;-80
2023/12/15 02:48:37;;;;;;;32.10;18.47;;;;;;;;;;5031105;28;20063;-82
2023/12/15 02:51:06;;;;;;;37.60;19.37;;;;;;;;;;5030040;28;20040;-82
2023/12/15 02:53:34;;;;;;;34.60;18.17;;;;;;;;;;5044968;28;20033;-81
2023/12/15 02:56:00;;;;;;;37.37;19.93;;;;;;;;;;5030327;28;20029;-83
2023/12/15 02:58:26;;;;;;;33.00;18.00;;;;;;;;;;5044992;28;20021;-80
2023/12/15 03:00:55;;;;;;;37.20;18.40;;;;;;;;;;5030116;28;20025;-81
2023/12/15 03:03:21;;;;;;;33.77;18.40;;;;;;;;;;5030214;28;20041;-82
2023/12/15 03:05:47;;;;;;;39.60;18.50;;;;;;;;;;5030626;28;20071;-82
2023/12/15 03:08:13;;;;;;;37.27;19.40;;;;;;;;;;5045626;28;20037;-81
2023/12/15 03:10:41;;;;;;;40.70;20.53;;;;;;;;;;5028365;28;20036;-82
2023/12/15 03:13:07;;;;;;;37.83;21.23;;;;;;;;;;5045191;28;20021;-81
2023/12/15 03:15:36;;;;;;;39.30;21.03;;;;;;;;;;5030207;28;20029;-81
2023/12/15 03:18:02;;;;;;;34.90;20.50;;;;;;;;;;5029368;28;20036;-81
2023/12/15 03:20:28;;;;;;;37.73;18.13;;;;;;;;;;5029847;28;20048;-83
2023/12/15 03:22:59;;;;;;;42.20;20.93;;;;;;;;;;5030948;28;20030;-82
2023/12/15 03:25:25;;;;;;;40.83;21.80;;;;;;;;;;5045897;28;20029;-81
2023/12/15 03:27:51;;;;;;;45.80;20.40;;;;;;;;;;5029566;28;20505;-81
2023/12/15 03:30:21;;;;;;;42.90;19.27;;;;;;;;;;5029663;28;20029;-81
2023/12/15 03:32:50;;;;;;;41.87;20.43;;;;;;;;;;5029606;28;20021;-80
2023/12/15 03:35:16;;;;;;;42.33;21.33;;;;;;;;;;5029539;28;20059;-82
2023/12/15 03:37:45;;;;;;;38.30;20.27;;;;;;;;;;5035054;28;20084;-80
2023/12/15 03:40:14;;;;;;;36.53;18.23;;;;;;;;;;5029231;28;20238;-82
2023/12/15 03:42:42;;;;;;;38.70;19.00;;;;;;;;;;5031055;28;20037;-81
2023/12/15 03:45:09;;;;;;;37.17;18.93;;;;;;;;;;5028879;28;20080;-82
2023/12/15 03:47:37;;;;;;;40.33;18.73;;;;;;;;;;5029442;28;20045;-81
2023/12/15 03:50:03;;;;;;;40.33;20.00;;;;;;;;;;5045630;28;20033;-82
2023/12/15 03:52:30;;;;;;;37.90;19.93;;;;;;;;;;5029512;28;20383;-80
2023/12/15 03:54:56;;;;;;;39.10;19.17;;;;;;;;;;5029468;28;20233;-83
2023/12/15 03:57:22;;;;;;;37.97;18.47;;;;;;;;;;5030221;28;20031;-80
2023/12/15 03:59:49;;;;;;;34.40;18.90;;;;;;;;;;5029799;28;20037;-80
2023/12/15 04:02:20;;;;;;;32.43;17.77;;;;;;;;;;5029484;28;20033;-81
2023/12/15 04:04:46;;;;;;;35.70;18.70;;;;;;;;;;5030845;28;20025;-81
2023/12/15 04:07:15;;;;;;;33.50;17.00;;;;;;;;;;5028604;28;20033;-83
2023/12/15 04:09:52;;;;;;;33.27;16.63;;;;;;;;;;5027320;28;20025;-81
2023/12/15 04:12:21;;;;;;;35.13;17.13;;;;;;;;;;5029197;28;20034;-83
2023/12/15 04:14:47;;;;;;;34.27;18.10;;;;;;;;;;5044251;28;20089;-80
2023/12/15 04:17:13;;;;;;;34.17;19.00;;;;;;;;;;5029802;28;20045;-84
2023/12/15 04:19:43;;;;;;;38.50;17.97;;;;;;;;;;5030268;28;20540;-83
2023/12/15 04:22:09;;;;;;;31.70;16.47;;;;;;;;;;5025997;28;20057;-83
2023/12/15 04:24:37;;;;;;;34.33;17.17;;;;;;;;;;5029735;28;20045;-82
2023/12/15 04:27:05;;;;;;;32.37;17.10;;;;;;;;;;5030387;28;20084;-80
2023/12/15 04:29:32;;;;;;;31.87;17.77;;;;;;;;;;5029302;28;20052;-81
2023/12/15 04:32:07;;;;;;;35.87;18.10;;;;;;;;;;5044430;28;20029;-82
2023/12/15 04:34:37;;;;;;;33.47;16.80;;;;;;;;;;5045905;28;20026;-82
2023/12/15 04:37:03;;;;;;;31.67;16.53;;;;;;;;;;5045684;28;20049;-82
2023/12/15 04:39:29;;;;;;;30.60;16.37;;;;;;;;;;5029812;28;20026;-83
2023/12/15 04:41:55;;;;;;;33.27;14.80;;;;;;;;;;5031971;28;20064;-85
2023/12/15 04:44:21;;;;;;;30.83;16.47;;;;;;;;;;5035923;28;20097;-82
2023/12/15 04:46:55;;;;;;;26.63;15.30;;;;;;;;;;5029576;28;20037;-83
2023/12/15 04:49:24;;;;;;;27.90;15.20;;;;;;;;;;5033943;28;20037;-82
2023/12/15 04:51:50;;;;;;;31.50;16.33;;;;;;;;;;5028836;28;20025;-83
2023/12/15 04:54:18;;;;;;;32.37;16.13;;;;;;;;;;5035924;28;20032;-83
2023/12/15 04:56:49;;;;;;;31.60;17.07;;;;;;;;;;5029424;28;20014;-84
2023/12/15 04:59:18;;;;;;;37.83;16.03;;;;;;;;;;5036056;28;20014;-84
2023/12/15 05:01:44;;;;;;;32.20;15.73;;;;;;;;;;5053020;28;20041;-84
2023/12/15 05:04:13;;;;;;;29.87;14.83;;;;;;;;;;5033446;28;20064;-83
2023/12/15 05:06:39;;;;;;;29.37;15.80;;;;;;;;;;5021042;28;20027;-83
2023/12/15 05:09:08;;;;;;;28.73;14.90;;;;;;;;;;5016787;28;20026;-83
2023/12/15 05:11:37;;;;;;;31.17;14.30;;;;;;;;;;5048004;28;20025;-82
2023/12/15 05:14:20;;;;;;;39.77;17.30;;;;;;;;;;5029804;28;20026;-84
2023/12/15 05:16:48;;;;;;;31.93;15.47;;;;;;;;;;5029104;28;20014;-84
2023/12/15 05:19:15;;;;;;;32.30;15.87;;;;;;;;;;5029655;28;20470;-84
2023/12/15 05:21:43;;;;;;;30.37;15.37;;;;;;;;;;5045856;28;20030;-84
2023/12/15 05:24:09;;;;;;;29.07;15.47;;;;;;;;;;5036218;28;20060;-84
2023/12/15 05:26:37;;;;;;;27.97;14.30;;;;;;;;;;5039430;28;20076;-83
2023/12/15 05:29:04;;;;;;;31.20;15.57;;;;;;;;;;5053914;28;20036;-83
2023/12/15 05:31:32;;;;;;;35.63;15.90;;;;;;;;;;5027931;28;20044;-83
2023/12/15 05:34:01;;;;;;;35.03;15.83;;;;;;;;;;5030086;28;20029;-84
2023/12/15 05:36:27;;;;;;;32.73;16.23;;;;;;;;;;5038867;28;20021;-82
2023/12/15 05:38:56;;;;;;;28.83;15.83;;;;;;;;;;5031730;28;20022;-82
2023/12/15 05:41:27;;;;;;;32.70;16.07;;;;;;;;;;5029626;28;20059;-83
2023/12/15 05:43:53;;;;;;;32.75;14.90;;;;;;;;;;5038326;28;20021;-79
2023/12/15 05:46:20;;;;;;;33.53;14.80;;;;;;;;;;5022598;28;20018;-84
2023/12/15 05:48:46;;;;;;;34.10;15.97;;;;;;;;;;5031505;28;20099;-84
2023/12/15 05:51:15;;;;;;;26.83;14.73;;;;;;;;;;5056017;28;20083;-83
2023/12/15 05:53:44;;;;;;;32.77;16.17;;;;;;;;;;5051825;28;20026;-82
2023/12/15 05:56:12;;;;;;;29.07;14.83;;;;;;;;;;5035688;28;20036;-83
2023/12/15 05:58:41;;;;;;;37.33;15.00;;;;;;;;;;5035485;28;20018;-83
2023/12/15 06:01:08;;;;;;;36.13;14.63;;;;;;;;;;5020880;28;20034;-83
2023/12/15 06:03:34;;;;;;;34.43;14.63;;;;;;;;;;5036595;28;20025;-82
2023/12/15 06:06:00;;;;;;;27.83;14.30;;;;;;;;;;5028255;28;20038;-83
2023/12/15 06:08:26;;;;;;;34.07;15.67;;;;;;;;;;5038261;28;20038;-82
2023/12/15 06:10:57;;;;;;;28.83;14.73;;;;;;;;;;5029669;28;20033;-84
2023/12/15 06:13:25;;;;;;;31.43;15.33;;;;;;;;;;5036015;28;20026;-82
2023/12/15 06:16:08;;;;;;;33.83;15.40;;;;;;;;;;5027420;28;20052;-84
2023/12/15 06:18:34;;;;;;;31.30;14.55;;;;;;;;;;5025385;28;20060;-80
2023/12/15 06:21:00;;;;;;;30.07;14.50;;;;;;;;;;5031406;28;20037;-79
2023/12/15 06:23:32;;;;;;;33.80;15.30;;;;;;;;;;5031674;28;20113;-83
2023/12/15 06:25:58;;;;;;;32.87;14.03;;;;;;;;;;5032467;28;20028;-81
2023/12/15 06:31:17;;;;;;;30.77;14.43;;;;;;;;;;5048406;28;20036;-82
2023/12/15 06:33:46;;;;;;;25.67;13.00;;;;;;;;;;5031628;28;20154;-82
2023/12/15 06:36:15;;;;;;;30.53;14.40;;;;;;;;;;5047431;28;20044;-80
2023/12/15 06:38:44;;;;;;;27.07;14.20;;;;;;;;;;5030916;28;20041;-80
2023/12/15 06:41:15;;;;;;;26.73;14.30;;;;;;;;;;5031980;28;20084;-81
2023/12/15 06:43:42;;;;;;;31.17;15.47;;;;;;;;;;5047197;28;20119;-83
2023/12/15 06:46:11;;;;;;;31.67;14.97;;;;;;;;;;5030837;28;20038;-81
2023/12/15 06:48:40;;;;;;;32.40;14.73;;;;;;;;;;5031588;28;20103;-82
2023/12/15 06:51:06;;;;;;;36.47;15.97;;;;;;;;;;5030387;28;20093;-83
2023/12/15 06:53:34;;;;;;;29.37;15.40;;;;;;;;;;5030735;28;20033;-82
2023/12/15 06:56:05;;;;;;;37.63;16.63;;;;;;;;;;5030531;28;20013;-80
2023/12/15 06:58:36;;;;;;;39.70;17.77;;;;;;;;;;5027400;28;20041;-79
2023/12/15 07:01:02;;;;;;;33.67;17.87;;;;;;;;;;5029652;28;20021;-81
2023/12/15 07:03:28;;;;;;;30.87;15.70;;;;;;;;;;5027973;28;20049;-82
2023/12/15 07:05:54;;;;;;;30.90;15.53;;;;;;;;;;5030349;28;20025;-81
2023/12/15 07:08:23;;;;;;;36.93;16.20;;;;;;;;;;5030617;28;20021;-82
2023/12/15 07:10:50;;;;;;;34.17;15.57;;;;;;;;;;5046774;28;20541;-81
2023/12/15 07:13:23;;;;;;;27.10;13.27;;;;;;;;;;5046549;28;20090;-81
2023/12/15 07:16:07;;;;;;;26.50;13.53;;;;;;;;;;5029534;28;20117;-82
2023/12/15 07:18:33;;;;;;;27.17;14.80;;;;;;;;;;5046913;28;20043;-82
2023/12/15 07:20:59;;;;;;;33.03;14.83;;;;;;;;;;5032049;28;20096;-82
2023/12/15 07:23:25;;;;;;;31.77;15.20;;;;;;;;;;5030560;28;20025;-80
2023/12/15 07:25:51;;;;;;;34.20;14.63;;;;;;;;;;5048092;28;20033;-81
2023/12/15 07:28:17;;;;;;;32.70;14.27;;;;;;;;;;5029509;28;20052;-81
2023/12/15 07:30:46;;;;;;;34.93;15.73;;;;;;;;;;5031742;28;20036;-82
2023/12/15 07:33:14;;;;;;;34.43;15.63;;;;;;;;;;5048332;28;20048;-80
2023/12/15 07:35:40;;;;;;;30.40;12.77;;;;;;;;;;5029591;28;20040;-81
2023/12/15 07:38:07;;;;;;;32.17;15.43;;;;;;;;;;5048114;28;20033;-79
2023/12/15 07:40:42;;;;;;;37.70;15.77;;;;;;;;;;5030189;28;20024;-81
2023/12/15 07:43:15;;;;;;;33.43;15.20;;;;;;;;;;5030188;28;20036;-82
2023/12/15 07:45:46;;;;;;;28.40;14.43;;;;;;;;;;5033044;28;20017;-82
2023/12/15 07:48:15;;;;;;;34.97;15.03;;;;;;;;;;5030491;28;20075;-82
2023/12/15 07:50:43;;;;;;;39.97;17.83;;;;;;;;;;5048048;28;20025;-81
2023/12/15 07:53:12;;;;;;;51.07;20.03;;;;;;;;;;5030981;28;20021;-82
2023/12/15 07:55:38;;;;;;;127.37;41.00;;;;;;;;;;5031538;28;20022;-84
2023/12/15 07:58:10;;;;;;;108.43;35.77;;;;;;;;;;5048793;28;20049;-81
2023/12/15 08:00:36;;;;;;;122.55;42.03;;;;;;;;;;5030259;28;20029;-82
2023/12/15 08:03:04;;;;;;;109.87;35.57;;;;;;;;;;5032368;28;20039;-80
2023/12/15 08:05:38;;;;;;;48.13;20.30;;;;;;;;;;5031088;28;20026;-81
2023/12/15 08:08:07;;;;;;;49.47;20.57;;;;;;;;;;5031211;28;20045;-80
2023/12/15 08:10:35;;;;;;;48.43;19.73;;;;;;;;;;5030841;28;20008;-83
2023/12/15 08:13:12;;;;;;;46.23;16.93;;;;;;;;;;5052127;28;20029;-81
2023/12/15 08:15:38;;;;;;;36.73;18.53;;;;;;;;;;5030228;28;20044;-82
2023/12/15 08:18:04;;;;;;;36.67;17.70;;;;;;;;;;5030013;28;20044;-82
2023/12/15 08:20:30;;;;;;;30.37;13.73;;;;;;;;;;5047041;28;20030;-83
2023/12/15 08:22:56;;;;;;;28.07;14.70;;;;;;;;;;5032127;28;20231;-82
2023/12/15 08:25:23;;;;;;;34.20;15.87;;;;;;;;;;5030772;28;20030;-81
2023/12/15 08:28:00;;;;;;;35.10;17.13;;;;;;;;;;5029407;28;20030;-81
2023/12/15 08:30:26;;;;;;;43.57;17.83;;;;;;;;;;5027483;28;20033;-82
2023/12/15 08:32:52;;;;;;;41.93;18.73;;;;;;;;;;5047555;28;20021;-81
2023/12/15 08:35:18;;;;;;;32.77;16.60;;;;;;;;;;5027648;28;20022;-80
2023/12/15 08:37:46;;;;;;;33.50;16.83;;;;;;;;;;5047622;28;20025;-82
2023/12/15 08:40:12;;;;;;;45.33;19.67;;;;;;;;;;5030686;28;20026;-83
2023/12/15 08:42:38;;;;;;;50.57;22.17;;;;;;;;;;5031294;28;20032;-82
2023/12/15 08:45:06;;;;;;;45.37;20.50;;;;;;;;;;5036523;28;20027;-82
2023/12/15 08:47:32;;;;;;;47.20;20.23;;;;;;;;;;5032917;28;20044;-80
2023/12/15 08:52:47;;;;;;;44.97;22.17;;;;;;;;;;5047791;28;20033;-82
2023/12/15 08:55:13;;;;;;;57.87;25.93;;;;;;;;;;5030411;28;20040;-81
2023/12/15 08:57:39;;;;;;;63.67;26.73;;;;;;;;;;5030700;28;20025;-82
2023/12/15 09:00:08;;;;;;;65.37;27.53;;;;;;;;;;5034803;28;20049;-80
2023/12/15 09:02:38;;;;;;;65.07;28.77;;;;;;;;;;5034358;28;20064;-82
2023/12/15 09:05:08;;;;;;;70.67;27.43;;;;;;;;;;5035250;28;20089;-83
2023/12/15 09:07:35;;;;;;;68.43;27.50;;;;;;;;;;5048949;28;20089;-81
2023/12/15 09:10:03;;;;;;;68.30;26.53;;;;;;;;;;5035985;28;20038;-81
2023/12/15 09:12:29;;;;;;;72.13;29.97;;;;;;;;;;5048148;28;20105;-81
2023/12/15 09:14:58;;;;;;;73.03;30.13;;;;;;;;;;5034556;28;20033;-82
2023/12/15 09:17:26;;;;;;;71.07;29.13;;;;;;;;;;5033853;28;20025;-80
2023/12/15 09:19:53;;;;;;;68.87;27.23;;;;;;;;;;5034897;28;20052;-83
2023/12/15 09:22:19;;;;;;;72.27;29.70;;;;;;;;;;5034018;28;20099;-81
2023/12/15 09:24:45;;;;;;;67.97;28.80;;;;;;;;;;5050155;28;20033;-82
2023/12/15 09:27:11;;;;;;;72.13;29.33;;;;;;;;;;5052256;28;20033;-81
2023/12/15 09:29:45;;;;;;;65.33;28.67;;;;;;;;;;5036144;28;20135;-83
2023/12/15 09:32:11;;;;;;;64.77;27.77;;;;;;;;;;5034482;28;20052;-83
2023/12/15 09:34:39;;;;;;;67.60;26.90;;;;;;;;;;5035329;28;20029;-81
2023/12/15 09:37:06;;;;;;;63.37;28.20;;;;;;;;;;5034514;28;20033;-80
2023/12/15 09:39:32;;;;;;;68.33;29.20;;;;;;;;;;5049671;28;20085;-80
2023/12/15 09:41:58;;;;;;;71.63;28.03;;;;;;;;;;5034571;28;20557;-80
2023/12/15 09:44:24;;;;;;;78.47;27.10;;;;;;;;;;5034600;28;20067;-81
2023/12/15 09:46:51;;;;;;;66.30;27.80;;;;;;;;;;5034049;28;20143;-81
2023/12/15 09:49:21;;;;;;;62.00;27.23;;;;;;;;;;5050962;28;20037;-80
2023/12/15 09:52:00;;;;;;;66.77;28.53;;;;;;;;;;5052005;28;20064;-82
2023/12/15 09:54:31;;;;;;;66.03;27.57;;;;;;;;;;5050985;28;20044;-80
2023/12/15 09:56:59;;;;;;;67.63;30.20;;;;;;;;;;5034927;28;20056;-81
2023/12/15 09:59:25;;;;;;;63.60;27.83;;;;;;;;;;5049157;28;20037;-80
2023/12/15 10:01:51;;;;;;;66.63;29.70;;;;;;;;;;5032840;28;20052;-80
2023/12/15 10:04:17;;;;;;;58.57;27.33;;;;;;;;;;5033637;28;20045;-81
2023/12/15 10:06:44;;;;;;;68.17;29.70;;;;;;;;;;5033260;28;20064;-79
2023/12/15 10:09:13;;;;;;;67.23;27.50;;;;;;;;;;5033725;28;20040;-79
2023/12/15 10:11:46;;;;;;;67.83;29.00;;;;;;;;;;5033443;28;20029;-83
2023/12/15 10:14:15;;;;;;;63.20;29.03;;;;;;;;;;5049771;28;20307;-82
2023/12/15 10:16:41;;;;;;;58.67;29.37;;;;;;;;;;5050690;28;20084;-79
2023/12/15 10:19:15;;;;;;;58.20;27.17;;;;;;;;;;5033935;28;20088;-80
2023/12/15 10:21:42;;;;;;;65.47;28.50;;;;;;;;;;5048838;28;20025;-80
2023/12/15 10:24:19;;;;;;;66.03;29.77;;;;;;;;;;5034357;28;20717;-81
2023/12/15 10:26:45;;;;;;;62.00;30.30;;;;;;;;;;5048922;28;20179;-82
2023/12/15 10:29:14;;;;;;;63.13;29.53;;;;;;;;;;5033738;28;20021;-81
2023/12/15 10:31:41;;;;;;;66.87;30.57;;;;;;;;;;5050922;28;20040;-81
2023/12/15 10:34:09;;;;;;;70.33;29.70;;;;;;;;;;5033592;28;20028;-81
2023/12/15 10:36:40;;;;;;;64.23;28.50;;;;;;;;;;5034390;28;20021;-80
2023/12/15 10:39:07;;;;;;;57.40;28.70;;;;;;;;;;5049200;28;20009;-81
2023/12/15 10:41:35;;;;;;;60.17;28.67;;;;;;;;;;5033791;28;20230;-83
2023/12/15 10:44:02;;;;;;;68.37;28.37;;;;;;;;;;5029375;28;20032;-84
2023/12/15 10:46:38;;;;;;;;;;;;;;;;;;;;;
2023/12/15 10:49:06;;;;;;;59.90;28.40;;;;;;;;;;5038090;28;20057;-83
2023/12/15 10:51:35;;;;;;;59.07;26.80;;;;;;;;;;5028746;28;20060;-84
2023/12/15 10:54:02;;;;;;;58.27;26.10;;;;;;;;;;5031867;28;20021;-84
2023/12/15 10:56:28;;;;;;;65.13;28.73;;;;;;;;;;5037576;28;20021;-84
2023/12/15 10:58:56;;;;;;;56.47;27.87;;;;;;;;;;5031088;28;20013;-82
2023/12/15 11:01:23;;;;;;;61.90;29.20;;;;;;;;;;5030298;28;20038;-82
2023/12/15 11:03:49;;;;;;;60.90;27.87;;;;;;;;;;5033848;28;20029;-85
2023/12/15 11:06:25;;;;;;;66.23;27.40;;;;;;;;;;5033809;28;20030;-85
2023/12/15 11:08:51;;;;;;;61.27;28.37;;;;;;;;;;5035964;28;20038;-83
2023/12/15 11:11:23;;;;;;;61.70;28.77;;;;;;;;;;5035062;28;20021;-84
2023/12/15 11:13:58;;;;;;;53.30;26.40;;;;;;;;;;5029933;28;20025;-84
2023/12/15 11:16:24;;;;;;;62.77;29.00;;;;;;;;;;5033536;28;20025;-84
2023/12/15 11:18:56;;;;;;;69.07;29.50;;;;;;;;;;5035691;28;20079;-83
2023/12/15 11:21:24;;;;;;;59.97;27.67;;;;;;;;;;5034495;28;20021;-83
2023/12/15 11:23:53;;;;;;;63.90;28.20;;;;;;;;;;5028127;28;20026;-84
2023/12/15 11:26:27;;;;;;;57.77;25.63;;;;;;;;;;5055869;28;20032;-83
2023/12/15 11:28:57;;;;;;;53.03;26.00;;;;;;;;;;5036253;28;20033;-84
2023/12/15 11:31:28;;;;;;;60.20;25.60;;;;;;;;;;5025395;28;20030;-85
2023/12/15 11:33:55;;;;;;;65.23;29.77;;;;;;;;;;5020800;28;20045;-83
2023/12/15 11:36:21;;;;;;;62.47;27.47;;;;;;;;;;5036272;28;20089;-84
2023/12/15 11:38:49;;;;;;;58.93;27.80;;;;;;;;;;5038278;28;20131;-84
2023/12/15 11:41:19;;;;;;;67.43;28.03;;;;;;;;;;5026596;28;20026;-84
2023/12/15 11:43:46;;;;;;;64.67;26.93;;;;;;;;;;5032634;28;20028;-84
2023/12/15 11:46:12;;;;;;;62.57;26.57;;;;;;;;;;5054443;28;20025;-85
2023/12/15 11:48:39;;;;;;;59.87;26.17;;;;;;;;;;5038021;28;20033;-84
2023/12/15 11:51:08;;;;;;;63.77;27.07;;;;;;;;;;5054418;28;20060;-84
2023/12/15 11:53:47;;;;;;;60.90;27.00;;;;;;;;;;5028422;28;20032;-85
2023/12/15 11:56:20;;;;;;;55.13;24.77;;;;;;;;;;5038051;28;20035;-85
2023/12/15 11:58:46;;;;;;;62.17;26.63;;;;;;;;;;5047185;28;20104;-84
2023/12/15 12:01:14;;;;;;;61.03;26.43;;;;;;;;;;5038440;28;20042;-84
2023/12/15 12:03:40;;;;;;;60.07;26.57;;;;;;;;;;5024401;28;20033;-83
2023/12/15 12:06:09;;;;;;;71.67;28.13;;;;;;;;;;5054992;28;20018;-84
2023/12/15 12:08:40;;;;;;;70.13;27.43;;;;;;;;;;5037756;28;20021;-84
2023/12/15 12:11:07;;;;;;;71.30;27.20;;;;;;;;;;5037626;28;20033;-83
2023/12/15 12:13:44;;;;;;;61.40;26.37;;;;;;;;;;5029481;28;20021;-82
2023/12/15 12:16:12;;;;;;;61.43;26.77;;;;;;;;;;5038056;28;20029;-84
2023/12/15 12:18:38;;;;;;;57.27;25.00;;;;;;;;;;5028506;28;20047;-82
2023/12/15 12:21:05;;;;;;;60.10;25.90;;;;;;;;;;5046399;28;20060;-81
2023/12/15 12:23:34;;;;;;;55.47;24.83;;;;;;;;;;5046334;28;20021;-81
2023/12/15 12:26:05;;;;;;;56.70;24.13;;;;;;;;;;5030466;28;20029;-81
2023/12/15 12:28:44;;;;;;;60.40;25.50;;;;;;;;;;5045460;28;20026;-81
2023/12/15 12:31:14;;;;;;;58.43;24.40;;;;;;;;;;5030767;28;20095;-80
2023/12/15 12:33:40;;;;;;;52.93;24.13;;;;;;;;;;5047738;28;20028;-81
2023/12/15 12:36:08;;;;;;;60.83;25.80;;;;;;;;;;5035571;28;20056;-81
2023/12/15 12:38:34;;;;;;;59.87;24.73;;;;;;;;;;5034521;28;20005;-80
2023/12/15 12:41:09;;;;;;;58.57;24.93;;;;;;;;;;5034838;28;20041;-83
2023/12/15 12:43:35;;;;;;;51.43;23.83;;;;;;;;;;5052227;28;20033;-82
2023/12/15 12:46:06;;;;;;;48.90;23.67;;;;;;;;;;5035049;28;20045;-81
2023/12/15 12:48:32;;;;;;;52.57;23.43;;;;;;;;;;5035831;28;20056;-81
2023/12/15 12:50:58;;;;;;;49.97;23.47;;;;;;;;;;5034915;28;20028;-80
2023/12/15 12:53:25;;;;;;;60.63;23.50;;;;;;;;;;5034170;28;20060;-81
2023/12/15 12:55:53;;;;;;;54.77;24.43;;;;;;;;;;5035374;28;20041;-82
2023/12/15 12:58:19;;;;;;;58.60;23.97;;;;;;;;;;5051946;28;20021;-80
2023/12/15 13:00:51;;;;;;;52.47;23.73;;;;;;;;;;5033768;28;20089;-81
2023/12/15 13:03:20;;;;;;;54.33;23.85;;;;;;;;;;5036091;28;20033;-79
2023/12/15 13:05:48;;;;;;;53.60;24.20;;;;;;;;;;5035586;28;20018;-81
2023/12/15 13:08:14;;;;;;;53.30;24.83;;;;;;;;;;5051887;28;20212;-80
2023/12/15 13:10:43;;;;;;;52.33;24.30;;;;;;;;;;5051418;28;20022;-82
2023/12/15 13:13:09;;;;;;;58.93;24.50;;;;;;;;;;5049680;28;20083;-80
2023/12/15 13:15:37;;;;;;;56.37;26.60;;;;;;;;;;5031433;28;20025;-80
2023/12/15 13:18:03;;;;;;;56.83;24.83;;;;;;;;;;5034166;28;20021;-81
2023/12/15 13:20:29;;;;;;;54.43;24.67;;;;;;;;;;5035386;28;20313;-79
2023/12/15 13:22:59;;;;;;;49.93;22.23;;;;;;;;;;5035515;28;20053;-83
2023/12/15 13:25:25;;;;;;;53.50;23.37;;;;;;;;;;5032006;28;20037;-83
2023/12/15 13:27:52;;;;;;;53.70;23.43;;;;;;;;;;5031657;28;20057;-80
2023/12/15 13:30:20;;;;;;;47.30;21.33;;;;;;;;;;5052412;28;20048;-81
2023/12/15 13:32:48;;;;;;;51.43;22.90;;;;;;;;;;5050745;28;20047;-81
2023/12/15 13:35:17;;;;;;;55.03;22.63;;;;;;;;;;5035108;28;20029;-82
2023/12/15 13:37:48;;;;;;;48.67;22.50;;;;;;;;;;5033716;28;20009;-82
2023/12/15 13:40:22;;;;;;;51.15;22.40;;;;;;;;;;5034186;28;20040;-80
2023/12/15 13:42:51;;;;;;;44.30;22.13;;;;;;;;;;5050877;28;20037;-81
2023/12/15 13:45:18;;;;;;;55.10;23.03;;;;;;;;;;5033368;28;20064;-82
2023/12/15 13:47:44;;;;;;;51.60;23.67;;;;;;;;;;5032716;28;20044;-82
2023/12/15 13:50:15;;;;;;;52.33;22.33;;;;;;;;;;5032681;28;20033;-81
2023/12/15 13:52:43;;;;;;;49.00;24.20;;;;;;;;;;5034162;28;20021;-82
2023/12/15 13:55:09;;;;;;;51.10;24.57;;;;;;;;;;5033545;28;20053;-80
2023/12/15 13:57:41;;;;;;;47.53;22.93;;;;;;;;;;5031581;28;20045;-80
2023/12/15 14:00:14;;;;;;;61.20;23.70;;;;;;;;;;5030749;28;20025;-79
2023/12/15 14:02:45;;;;;;;51.37;23.50;;;;;;;;;;5049834;28;20056;-80
2023/12/15 14:05:11;;;;;;;55.33;23.00;;;;;;;;;;5050816;28;20034;-81
2023/12/15 14:07:37;;;;;;;47.47;23.03;;;;;;;;;;5033371;28;20132;-81
2023/12/15 14:10:05;;;;;;;52.70;22.23;;;;;;;;;;5033320;28;20038;-80
2023/12/15 14:12:31;;;;;;;40.13;20.83;;;;;;;;;;5032980;28;20664;-79
2023/12/15 14:15:00;;;;;;;41.60;20.13;;;;;;;;;;5033286;28;20029;-81
2023/12/15 14:17:28;;;;;;;51.97;22.90;;;;;;;;;;5032294;28;20032;-81
2023/12/15 14:19:54;;;;;;;45.60;21.87;;;;;;;;;;5031956;28;20025;-81
2023/12/15 14:22:22;;;;;;;46.40;22.90;;;;;;;;;;5032724;28;20109;-81
2023/12/15 14:24:48;;;;;;;49.00;21.13;;;;;;;;;;5032573;28;20093;-80
2023/12/15 14:27:17;;;;;;;47.73;20.20;;;;;;;;;;5033665;28;20030;-81
2023/12/15 14:29:43;;;;;;;56.87;21.10;;;;;;;;;;5026957;28;20018;-81